Time;durP1;ratioP1;P1;durP2;ratioP2;P2;SDS_P1;SDS_P2;PMS_P1;PMS_P2;Temp;Humidity;BMP_temperature;BMP_pressure;BME280_temperature;BME280_humidity;BME280_pressure;Samples;Min_cycle;Max_cycle;Signal;HPM_P1;HPM_P2
2023/08/14 00:02:02;;;;;;;10.23;6.65;;;16.50;99.90;;;;;;5069790;28;20033;-57
2023/08/14 00:04:28;;;;;;;8.77;6.00;;;16.40;99.90;;;;;;5074610;28;20052;-57
2023/08/14 00:06:54;;;;;;;9.30;6.47;;;16.40;99.90;;;;;;5070082;28;20124;-57
2023/08/14 00:09:20;;;;;;;12.43;6.60;;;16.50;99.90;;;;;;5066363;28;20064;-57
2023/08/14 00:11:46;;;;;;;8.55;6.45;;;16.40;99.90;;;;;;5080593;28;20056;-56
2023/08/14 00:14:11;;;;;;;9.43;6.60;;;16.50;99.90;;;;;;5070614;28;20036;-57
2023/08/14 00:16:37;;;;;;;10.80;6.45;;;16.50;99.90;;;;;;5076733;28;20096;-58
2023/08/14 00:19:03;;;;;;;9.00;6.10;;;16.50;99.90;;;;;;5066778;28;20052;-57
2023/08/14 00:21:29;;;;;;;8.80;6.50;;;16.50;99.90;;;;;;5061865;28;20041;-57
2023/08/14 00:23:55;;;;;;;6.70;5.70;;;16.50;99.90;;;;;;5067787;28;20070;-57
2023/08/14 00:26:20;;;;;;;8.80;6.13;;;16.50;99.90;;;;;;5071733;28;20068;-56
2023/08/14 00:28:46;;;;;;;12.63;6.60;;;16.40;99.90;;;;;;5072879;28;20052;-56
2023/08/14 00:31:11;;;;;;;12.18;6.75;;;16.50;99.90;;;;;;5076223;28;20045;-57
2023/08/14 00:33:37;;;;;;;10.52;6.68;;;16.40;99.90;;;;;;5068564;28;20052;-59
2023/08/14 00:36:05;;;;;;;9.65;6.47;;;16.40;99.90;;;;;;5062672;28;20048;-57
2023/08/14 00:38:31;;;;;;;7.97;6.30;;;16.40;99.90;;;;;;5074851;28;20040;-57
2023/08/14 00:40:57;;;;;;;7.65;6.47;;;16.40;99.90;;;;;;5072829;28;20032;-58
2023/08/14 00:43:23;;;;;;;9.98;6.72;;;16.40;99.90;;;;;;5073796;28;20039;-57
2023/08/14 00:45:52;;;;;;;8.02;6.75;;;16.30;99.90;;;;;;5069524;28;20068;-57
2023/08/14 00:48:18;;;;;;;11.38;6.53;;;16.30;99.90;;;;;;5070391;28;20041;-58
2023/08/14 00:50:45;;;;;;;7.18;6.30;;;16.30;99.90;;;;;;5077053;28;20542;-56
2023/08/14 00:53:12;;;;;;;9.07;6.72;;;16.30;99.90;;;;;;5075582;28;20037;-58
2023/08/14 00:55:38;;;;;;;11.38;6.57;;;16.30;99.90;;;;;;5068105;28;20320;-57
2023/08/14 00:58:05;;;;;;;8.52;6.25;;;16.30;99.90;;;;;;5071011;28;20101;-57
2023/08/14 01:00:34;;;;;;;13.02;6.30;;;16.30;99.90;;;;;;5072663;28;20037;-57
2023/08/14 01:03:01;;;;;;;8.00;6.80;;;16.30;99.90;;;;;;5064623;28;20042;-57
2023/08/14 01:05:26;;;;;;;9.82;6.47;;;16.20;99.90;;;;;;5070298;28;20419;-58
2023/08/14 01:07:52;;;;;;;9.57;6.13;;;16.20;99.90;;;;;;5069722;28;20099;-57
2023/08/14 01:10:18;;;;;;;9.15;6.18;;;16.20;99.90;;;;;;5076132;28;20040;-55
2023/08/14 01:13:08;;;;;;;7.75;6.00;;;16.20;99.90;;;;;;5071464;28;20043;-57
2023/08/14 01:15:42;;;;;;;9.73;6.40;;;16.20;99.90;;;;;;5067139;28;20134;-57
2023/08/14 01:18:12;;;;;;;7.65;5.70;;;16.20;99.90;;;;;;5077085;28;20052;-57
2023/08/14 01:20:38;;;;;;;8.05;6.22;;;16.10;99.90;;;;;;5070662;28;20067;-57
2023/08/14 01:23:13;;;;;;;8.65;6.10;;;16.10;99.90;;;;;;5074224;28;20048;-57
2023/08/14 01:25:40;;;;;;;10.45;6.20;;;16.10;99.90;;;;;;5081359;28;20082;-56
2023/08/14 01:28:08;;;;;;;8.15;6.05;;;16.10;99.90;;;;;;5064803;28;20059;-54
2023/08/14 01:30:34;;;;;;;9.55;6.18;;;16.10;99.90;;;;;;5070257;28;20433;-57
2023/08/14 01:33:00;;;;;;;9.32;5.88;;;16.00;99.90;;;;;;5073213;28;20049;-56
2023/08/14 01:35:30;;;;;;;6.88;5.60;;;16.00;99.90;;;;;;5066914;28;20047;-58
2023/08/14 01:38:18;;;;;;;9.60;6.38;;;16.00;99.90;;;;;;5067934;28;20051;-58
2023/08/14 01:41:20;;;;;;;9.98;6.05;;;16.00;99.90;;;;;;5072712;28;20110;-56
2023/08/14 01:43:49;;;;;;;8.63;6.15;;;16.00;99.90;;;;;;5062947;28;20122;-57
2023/08/14 01:46:17;;;;;;;10.00;6.47;;;15.90;99.90;;;;;;5071625;28;20072;-56
2023/08/14 01:48:45;;;;;;;9.18;6.68;;;15.90;99.90;;;;;;5074531;28;20075;-57
2023/08/14 01:51:11;;;;;;;13.35;6.53;;;15.90;99.90;;;;;;5071991;28;20069;-57
2023/08/14 01:53:37;;;;;;;11.50;7.20;;;15.90;99.90;;;;;;5068325;28;20037;-57
2023/08/14 01:56:03;;;;;;;9.15;6.72;;;15.90;99.90;;;;;;5084716;28;20084;-58
2023/08/14 01:58:29;;;;;;;8.90;7.32;;;15.80;99.90;;;;;;5065743;28;20120;-57
2023/08/14 02:00:55;;;;;;;9.93;6.70;;;15.80;99.90;;;;;;5069249;28;20098;-56
2023/08/14 02:03:21;;;;;;;9.13;7.75;;;15.70;99.90;;;;;;5076525;28;20504;-57
2023/08/14 02:05:46;;;;;;;9.18;6.97;;;15.70;99.90;;;;;;5066247;28;20182;-57
2023/08/14 02:08:12;;;;;;;8.82;7.05;;;15.70;99.90;;;;;;5076511;28;20038;-57
2023/08/14 02:10:38;;;;;;;9.90;6.68;;;15.70;99.90;;;;;;5077197;28;20051;-57
2023/08/14 02:13:03;;;;;;;13.85;7.75;;;15.70;99.90;;;;;;5074846;28;20070;-56
2023/08/14 02:15:29;;;;;;;12.20;8.00;;;15.60;99.90;;;;;;5071727;28;20055;-56
2023/08/14 02:17:55;;;;;;;11.95;8.38;;;15.60;99.90;;;;;;5060158;28;20037;-57
2023/08/14 02:20:20;;;;;;;10.52;7.80;;;15.60;99.90;;;;;;5067909;28;20091;-58
2023/08/14 02:22:47;;;;;;;14.23;8.52;;;15.60;99.90;;;;;;5072630;28;20055;-57
2023/08/14 02:25:12;;;;;;;14.45;7.90;;;15.60;99.90;;;;;;5071354;28;20036;-57
2023/08/14 02:27:38;;;;;;;15.10;8.70;;;15.60;99.90;;;;;;5075226;28;20040;-57
2023/08/14 02:30:04;;;;;;;12.35;7.97;;;15.60;99.90;;;;;;5069889;28;20098;-57
2023/08/14 02:32:30;;;;;;;14.15;8.10;;;15.50;99.90;;;;;;5071867;28;20041;-57
2023/08/14 02:34:56;;;;;;;9.77;7.53;;;15.60;99.90;;;;;;5064363;28;20122;-57
2023/08/14 02:37:22;;;;;;;12.88;8.55;;;15.60;99.90;;;;;;5067521;28;20048;-57
2023/08/14 02:39:48;;;;;;;11.05;8.60;;;15.50;99.90;;;;;;5071013;28;20045;-59
2023/08/14 02:42:18;;;;;;;15.48;9.88;;;15.50;99.90;;;;;;5073644;28;20068;-57
2023/08/14 02:44:44;;;;;;;14.02;9.65;;;15.50;99.90;;;;;;5072815;28;20052;-59
2023/08/14 02:47:10;;;;;;;13.48;9.32;;;15.40;99.90;;;;;;5077869;28;20072;-56
2023/08/14 02:49:36;;;;;;;17.35;10.50;;;15.40;99.90;;;;;;5067838;28;20045;-57
2023/08/14 02:52:01;;;;;;;17.40;10.05;;;15.40;99.90;;;;;;5066078;28;20048;-57
2023/08/14 02:54:27;;;;;;;15.32;10.45;;;15.40;99.90;;;;;;5066043;28;20037;-58
2023/08/14 02:56:53;;;;;;;16.52;10.90;;;15.30;99.90;;;;;;5075656;28;20048;-57
2023/08/14 02:59:19;;;;;;;18.65;9.88;;;15.30;99.90;;;;;;5076963;28;20041;-58
2023/08/14 03:01:44;;;;;;;17.52;10.20;;;15.30;99.90;;;;;;5074218;28;20075;-56
2023/08/14 03:04:11;;;;;;;18.55;10.50;;;15.30;99.90;;;;;;5067965;28;20163;-57
2023/08/14 03:06:36;;;;;;;17.05;10.35;;;15.30;99.90;;;;;;5069961;28;20052;-58
2023/08/14 03:09:02;;;;;;;17.90;10.73;;;15.30;99.90;;;;;;5069477;28;20049;-58
2023/08/14 03:11:28;;;;;;;15.23;10.27;;;15.20;99.90;;;;;;5074202;28;20033;-58
2023/08/14 03:13:54;;;;;;;19.75;9.77;;;15.20;99.90;;;;;;5074164;28;20055;-58
2023/08/14 03:16:20;;;;;;;14.48;9.82;;;15.20;99.90;;;;;;5066341;28;20497;-59
2023/08/14 03:18:46;;;;;;;12.75;9.73;;;15.20;99.90;;;;;;5076619;28;20063;-57
2023/08/14 03:21:11;;;;;;;14.35;10.43;;;15.20;99.90;;;;;;5075269;28;20075;-57
2023/08/14 03:23:37;;;;;;;13.23;10.40;;;15.20;99.90;;;;;;5071503;28;20052;-58
2023/08/14 03:26:04;;;;;;;13.68;9.95;;;15.10;99.90;;;;;;5071482;28;20094;-57
2023/08/14 03:28:30;;;;;;;14.15;8.98;;;15.10;99.90;;;;;;5066937;28;20044;-57
2023/08/14 03:30:56;;;;;;;15.02;9.63;;;15.10;99.90;;;;;;5074421;28;20147;-57
2023/08/14 03:33:22;;;;;;;17.08;10.35;;;15.10;99.90;;;;;;5074772;28;20041;-58
2023/08/14 03:35:47;;;;;;;17.65;9.70;;;15.10;99.90;;;;;;5070015;28;20037;-57
2023/08/14 03:38:13;;;;;;;17.58;9.48;;;15.10;99.90;;;;;;5070895;28;20040;-57
2023/08/14 03:40:39;;;;;;;15.35;10.38;;;15.10;99.90;;;;;;5066047;28;20103;-58
2023/08/14 03:43:04;;;;;;;14.32;10.30;;;15.40;99.90;;;;;;5075689;28;20075;-57
2023/08/14 03:45:30;;;;;;;16.63;10.18;;;15.10;99.90;;;;;;5062241;28;20048;-57
2023/08/14 03:47:56;;;;;;;13.55;10.05;;;15.00;99.90;;;;;;5076442;28;20074;-57
2023/08/14 03:50:22;;;;;;;16.63;10.25;;;15.00;99.90;;;;;;5067324;28;20669;-56
2023/08/14 03:52:50;;;;;;;14.85;10.35;;;15.00;99.90;;;;;;5067626;28;20077;-58
2023/08/14 03:55:16;;;;;;;20.40;11.23;;;15.00;99.90;;;;;;5079376;28;20048;-57
2023/08/14 03:57:41;;;;;;;13.13;10.35;;;15.00;99.90;;;;;;5076124;28;20041;-57
2023/08/14 04:00:08;;;;;;;19.20;10.43;;;15.00;99.90;;;;;;5072432;28;20045;-57
2023/08/14 04:02:34;;;;;;;18.80;10.93;;;14.90;99.90;;;;;;5068905;28;20081;-57
2023/08/14 04:04:59;;;;;;;18.08;11.40;;;14.90;99.90;;;;;;5077472;28;20072;-58
2023/08/14 04:07:25;;;;;;;13.55;10.60;;;14.90;99.90;;;;;;5072678;28;20055;-57
2023/08/14 04:09:51;;;;;;;17.38;11.35;;;14.90;99.90;;;;;;5072750;28;20067;-57
2023/08/14 04:12:16;;;;;;;21.90;11.70;;;14.90;99.90;;;;;;5078805;28;20037;-57
2023/08/14 04:14:43;;;;;;;18.17;11.13;;;14.90;99.90;;;;;;5068067;28;20062;-57
2023/08/14 04:17:09;;;;;;;18.35;11.35;;;14.90;99.90;;;;;;5066847;28;20049;-57
2023/08/14 04:19:35;;;;;;;19.08;12.40;;;14.90;99.90;;;;;;5067570;28;20055;-58
2023/08/14 04:22:01;;;;;;;18.00;11.38;;;15.00;99.90;;;;;;5074471;28;20060;-57
2023/08/14 04:24:27;;;;;;;17.73;12.18;;;14.90;99.90;;;;;;5083498;28;20140;-55
2023/08/14 04:26:52;;;;;;;19.55;12.05;;;15.00;99.90;;;;;;5075266;28;20045;-57
2023/08/14 04:29:18;;;;;;;20.27;12.02;;;15.00;99.90;;;;;;5066842;28;20321;-57
2023/08/14 04:31:45;;;;;;;18.00;11.77;;;15.00;99.90;;;;;;5067318;28;20048;-57
2023/08/14 04:34:10;;;;;;;21.38;12.93;;;15.00;99.90;;;;;;5066459;28;20048;-56
2023/08/14 04:36:36;;;;;;;25.77;12.90;;;15.00;99.90;;;;;;5068545;28;20041;-57
2023/08/14 04:39:04;;;;;;;23.85;12.30;;;15.00;99.90;;;;;;5072073;28;20044;-56
2023/08/14 04:41:30;;;;;;;17.05;11.75;;;15.10;99.90;;;;;;5066251;28;20045;-57
2023/08/14 04:43:56;;;;;;;17.52;11.68;;;15.10;99.90;;;;;;5063659;28;20121;-55
2023/08/14 04:46:29;;;;;;;20.15;11.95;;;15.10;99.90;;;;;;5072903;28;20060;-59
2023/08/14 04:48:55;;;;;;;19.52;11.57;;;15.10;99.90;;;;;;5068120;28;20060;-56
2023/08/14 04:51:21;;;;;;;21.10;11.80;;;15.10;99.90;;;;;;5071756;28;20449;-58
2023/08/14 04:53:47;;;;;;;17.63;11.50;;;15.10;99.90;;;;;;5070836;28;20136;-57
2023/08/14 04:56:12;;;;;;;15.48;11.80;;;15.20;99.90;;;;;;5062318;28;20045;-57
2023/08/14 04:58:38;;;;;;;16.73;11.50;;;15.20;99.90;;;;;;5065427;28;20070;-57
2023/08/14 05:01:04;;;;;;;17.17;10.68;;;15.30;99.90;;;;;;5072711;28;20444;-57
2023/08/14 05:03:30;;;;;;;19.83;11.57;;;15.30;99.90;;;;;;5072030;28;20036;-58
2023/08/14 05:05:55;;;;;;;22.00;12.02;;;15.30;99.90;;;;;;5067751;28;20049;-57
2023/08/14 05:08:21;;;;;;;18.17;11.48;;;15.30;99.90;;;;;;5076996;28;20045;-58
2023/08/14 05:10:54;;;;;;;20.02;11.13;;;15.40;99.90;;;;;;5072002;28;20072;-58
2023/08/14 05:13:20;;;;;;;17.75;12.15;;;15.50;99.90;;;;;;5073752;28;20499;-57
2023/08/14 05:15:47;;;;;;;16.20;11.10;;;15.50;99.90;;;;;;5072917;28;20041;-58
2023/08/14 05:18:13;;;;;;;17.85;11.77;;;15.50;99.90;;;;;;5069384;28;20040;-57
2023/08/14 05:20:45;;;;;;;17.60;11.88;;;15.50;99.90;;;;;;5070705;28;20171;-59
2023/08/14 05:23:11;;;;;;;19.90;12.30;;;15.60;99.90;;;;;;5070087;28;20124;-58
2023/08/14 05:25:37;;;;;;;23.02;12.98;;;15.60;99.90;;;;;;5073351;28;20040;-58
2023/08/14 05:28:04;;;;;;;23.00;12.10;;;15.70;99.90;;;;;;5067199;28;20032;-58
2023/08/14 05:30:30;;;;;;;18.70;11.48;;;15.70;99.90;;;;;;5072645;28;20052;-57
2023/08/14 05:32:56;;;;;;;21.52;12.30;;;15.70;99.90;;;;;;5072659;28;20047;-58
2023/08/14 05:35:24;;;;;;;21.20;12.32;;;15.80;99.90;;;;;;5062687;28;20033;-57
2023/08/14 05:37:52;;;;;;;18.58;12.57;;;15.80;99.90;;;;;;5067206;28;20044;-56
2023/08/14 05:40:21;;;;;;;16.17;12.30;;;15.90;99.90;;;;;;5072484;28;20064;-57
2023/08/14 05:43:06;;;;;;;18.35;12.57;;;15.90;99.90;;;;;;5067220;28;20477;-56
2023/08/14 05:45:36;;;;;;;19.45;12.95;;;15.90;99.90;;;;;;5072932;28;20041;-57
2023/08/14 05:48:04;;;;;;;19.25;13.18;;;16.00;99.90;;;;;;5065769;28;20071;-57
2023/08/14 05:50:30;;;;;;;20.92;12.50;;;16.00;99.90;;;;;;5065605;28;20033;-56
2023/08/14 05:52:59;;;;;;;20.05;13.30;;;16.00;99.90;;;;;;5071989;28;20048;-56
2023/08/14 05:55:26;;;;;;;22.40;13.85;;;16.10;99.90;;;;;;5066265;28;20566;-56
2023/08/14 05:57:51;;;;;;;17.85;12.90;;;16.10;99.90;;;;;;5067075;28;20067;-56
2023/08/14 06:00:17;;;;;;;19.52;13.20;;;16.20;99.90;;;;;;5073637;28;20029;-56
2023/08/14 06:02:44;;;;;;;21.92;13.48;;;16.20;99.90;;;;;;5059350;28;20044;-56
2023/08/14 06:05:10;;;;;;;22.17;14.07;;;16.20;99.90;;;;;;5071693;28;20036;-56
2023/08/14 06:07:36;;;;;;;20.30;13.68;;;16.30;99.90;;;;;;5069855;28;20037;-55
2023/08/14 06:10:05;;;;;;;23.63;13.98;;;16.40;99.90;;;;;;5071249;28;20520;-56
2023/08/14 06:12:32;;;;;;;23.67;13.70;;;16.40;99.90;;;;;;5071810;28;20048;-56
2023/08/14 06:14:58;;;;;;;21.98;14.10;;;16.40;99.90;;;;;;5045581;28;20041;-56
2023/08/14 06:17:25;;;;;;;24.02;14.00;;;16.50;99.90;;;;;;5077273;28;20127;-58
2023/08/14 06:19:51;;;;;;;26.05;14.07;;;16.60;99.90;;;;;;5075370;28;20071;-56
2023/08/14 06:22:17;;;;;;;22.38;14.38;;;16.60;99.90;;;;;;5066618;28;20040;-56
2023/08/14 06:24:43;;;;;;;20.65;14.00;;;16.60;99.90;;;;;;5072081;28;20037;-56
2023/08/14 06:27:09;;;;;;;20.83;14.05;;;16.60;99.90;;;;;;5073807;28;20068;-57
2023/08/14 06:29:35;;;;;;;21.63;15.05;;;16.60;99.90;;;;;;5072925;28;20048;-56
2023/08/14 06:32:00;;;;;;;25.15;13.95;;;16.70;99.90;;;;;;5079545;28;20620;-57
2023/08/14 06:34:27;;;;;;;23.05;14.52;;;16.70;99.90;;;;;;5074309;28;20133;-56
2023/08/14 06:36:53;;;;;;;20.77;14.48;;;16.70;99.90;;;;;;5064494;28;20120;-57
2023/08/14 06:39:19;;;;;;;26.95;14.13;;;16.70;99.90;;;;;;5076694;28;20049;-57
2023/08/14 06:41:45;;;;;;;21.58;13.60;;;16.70;99.90;;;;;;5069136;28;20060;-57
2023/08/14 06:44:11;;;;;;;22.17;14.55;;;16.70;99.90;;;;;;5075304;28;20048;-57
2023/08/14 06:46:37;;;;;;;20.35;13.70;;;16.70;99.90;;;;;;5066294;28;20112;-57
2023/08/14 06:49:03;;;;;;;20.23;14.95;;;16.80;99.90;;;;;;5072676;28;20040;-57
2023/08/14 06:51:28;;;;;;;24.33;14.40;;;16.80;99.90;;;;;;5075275;28;20110;-57
2023/08/14 06:53:54;;;;;;;22.45;14.05;;;16.90;99.90;;;;;;5069835;28;20071;-56
2023/08/14 06:56:20;;;;;;;20.95;14.25;;;16.90;99.90;;;;;;5078801;28;20195;-56
2023/08/14 06:58:45;;;;;;;23.58;14.43;;;17.00;99.90;;;;;;5074224;28;20044;-56
2023/08/14 07:01:11;;;;;;;21.33;14.43;;;17.10;99.90;;;;;;5074635;28;20037;-58
2023/08/14 07:03:37;;;;;;;24.00;14.60;;;17.20;99.90;;;;;;5072860;28;20040;-57
2023/08/14 07:06:03;;;;;;;17.77;12.95;;;17.30;99.90;;;;;;5075192;28;20048;-59
2023/08/14 07:08:29;;;;;;;22.23;14.05;;;17.50;99.90;;;;;;5070129;28;20059;-58
2023/08/14 07:10:55;;;;;;;21.08;14.77;;;17.60;99.90;;;;;;5063882;28;20039;-57
2023/08/14 07:13:22;;;;;;;21.13;13.88;;;17.70;99.90;;;;;;5070434;28;20072;-57
2023/08/14 07:15:48;;;;;;;20.08;13.07;;;17.90;99.90;;;;;;5062299;28;20049;-57
2023/08/14 07:18:18;;;;;;;21.48;13.48;;;18.00;99.90;;;;;;5073911;28;20064;-57
2023/08/14 07:20:45;;;;;;;17.02;12.88;;;18.20;99.90;;;;;;5072146;28;20049;-58
2023/08/14 07:23:15;;;;;;;19.13;11.85;;;18.40;99.90;;;;;;5071765;28;20114;-57
2023/08/14 07:25:40;;;;;;;19.95;12.98;;;18.60;99.90;;;;;;5074684;28;20033;-57
2023/08/14 07:28:06;;;;;;;17.17;11.20;;;18.70;99.90;;;;;;5060113;28;20055;-57
2023/08/14 07:30:32;;;;;;;17.77;12.07;;;18.80;99.90;;;;;;5065523;28;20053;-57
2023/08/14 07:32:58;;;;;;;17.63;11.13;;;18.80;99.90;;;;;;5071151;28;22697;-57
2023/08/14 07:35:23;;;;;;;17.45;10.80;;;18.80;99.90;;;;;;5072276;28;20132;-57
2023/08/14 07:37:49;;;;;;;18.70;10.57;;;18.80;99.90;;;;;;5073285;28;20121;-57
2023/08/14 07:40:15;;;;;;;19.40;11.18;;;18.90;99.90;;;;;;5074993;28;20029;-57
2023/08/14 07:42:40;;;;;;;17.83;9.93;;;18.90;99.90;;;;;;5072765;28;20409;-57
2023/08/14 07:45:06;;;;;;;17.45;11.02;;;18.90;99.90;;;;;;5062333;28;20090;-57
2023/08/14 07:47:32;;;;;;;14.70;10.20;;;19.00;99.90;;;;;;5072299;28;20045;-57
2023/08/14 07:49:58;;;;;;;12.93;9.57;;;19.00;99.90;;;;;;5073634;28;20045;-57
2023/08/14 07:52:24;;;;;;;13.90;9.65;;;19.10;99.90;;;;;;5070770;28;20044;-57
2023/08/14 07:54:50;;;;;;;15.90;9.35;;;19.20;99.90;;;;;;5064661;28;20043;-57
2023/08/14 07:57:16;;;;;;;15.57;10.02;;;19.20;99.90;;;;;;5074699;28;20072;-57
2023/08/14 07:59:41;;;;;;;15.52;9.20;;;19.20;99.90;;;;;;5072079;28;20500;-57
2023/08/14 08:02:07;;;;;;;14.30;9.02;;;19.30;99.90;;;;;;5061189;28;20091;-57
2023/08/14 08:04:36;;;;;;;12.95;8.27;;;19.40;99.90;;;;;;5077279;28;20041;-57
2023/08/14 08:07:04;;;;;;;14.35;8.40;;;19.30;99.90;;;;;;5072592;28;20040;-56
2023/08/14 08:09:30;;;;;;;13.73;7.82;;;19.40;99.90;;;;;;5070060;28;20118;-57
2023/08/14 08:11:57;;;;;;;14.43;8.55;;;19.50;99.90;;;;;;5072983;28;20128;-57
2023/08/14 08:14:23;;;;;;;15.82;7.60;;;19.50;99.90;;;;;;5085910;28;20048;-58
2023/08/14 08:16:49;;;;;;;15.93;7.90;;;19.60;99.90;;;;;;5069234;28;20190;-57
2023/08/14 08:19:15;;;;;;;12.27;7.90;;;19.70;99.90;;;;;;5070510;28;20045;-57
2023/08/14 08:21:41;;;;;;;14.18;7.50;;;19.80;99.90;;;;;;5064582;28;20041;-57
2023/08/14 08:24:08;;;;;;;14.82;7.43;;;20.00;99.90;;;;;;5065555;28;20047;-57
2023/08/14 08:26:34;;;;;;;13.18;7.15;;;20.20;99.90;;;;;;5067763;28;20065;-57
2023/08/14 08:29:00;;;;;;;11.43;5.50;;;20.30;99.90;;;;;;5068390;28;20041;-57
2023/08/14 08:31:26;;;;;;;14.85;6.88;;;20.40;99.90;;;;;;5061934;28;20128;-57
2023/08/14 08:33:52;;;;;;;10.05;6.15;;;20.50;99.90;;;;;;5073915;28;20044;-57
2023/08/14 08:36:18;;;;;;;9.82;5.32;;;20.60;99.90;;;;;;5065046;28;20090;-57
2023/08/14 08:38:47;;;;;;;13.45;5.90;;;20.60;99.90;;;;;;5067398;28;20523;-56
2023/08/14 08:41:17;;;;;;;12.27;6.80;;;20.60;99.90;;;;;;5056682;28;20040;-57
2023/08/14 08:43:43;;;;;;;11.82;5.28;;;20.50;99.90;;;;;;5070432;28;20117;-58
2023/08/14 08:46:10;;;;;;;14.38;4.57;;;20.50;99.90;;;;;;5065099;28;20064;-57
2023/08/14 08:48:42;;;;;;;9.25;4.50;;;20.50;99.90;;;;;;5106342;28;20048;-57
2023/08/14 08:51:08;;;;;;;11.77;4.97;;;20.50;99.90;;;;;;5061088;28;20492;-57
2023/08/14 08:53:35;;;;;;;12.80;5.55;;;20.50;99.90;;;;;;5062209;28;20029;-58
2023/08/14 08:56:02;;;;;;;16.88;5.45;;;20.50;99.90;;;;;;5077509;28;20109;-57
2023/08/14 08:58:28;;;;;;;10.65;5.15;;;20.50;99.90;;;;;;5060337;28;20052;-58
2023/08/14 09:00:54;;;;;;;11.15;5.53;;;20.50;99.90;;;;;;5076238;28;20108;-57
2023/08/14 09:03:21;;;;;;;10.93;5.70;;;20.10;99.90;;;;;;5089177;28;20286;-57
2023/08/14 09:05:47;;;;;;;18.35;6.32;;;20.60;99.90;;;;;;5067398;28;20563;-58
2023/08/14 09:08:13;;;;;;;13.77;5.93;;;20.70;99.90;;;;;;5069312;28;20037;-57
2023/08/14 09:10:39;;;;;;;12.07;5.10;;;20.80;99.90;;;;;;5061429;28;20044;-57
2023/08/14 09:13:05;;;;;;;11.45;4.95;;;20.90;99.90;;;;;;5061418;28;20045;-58
2023/08/14 09:15:31;;;;;;;11.77;5.57;;;21.00;99.90;;;;;;5069802;28;20036;-58
2023/08/14 09:17:56;;;;;;;12.43;5.00;;;21.20;99.90;;;;;;5070486;28;20045;-57
2023/08/14 09:20:23;;;;;;;9.88;4.78;;;21.00;99.90;;;;;;5072555;28;20036;-59
2023/08/14 09:22:48;;;;;;;10.88;5.43;;;21.10;99.90;;;;;;5073111;28;20045;-58
2023/08/14 09:25:15;;;;;;;12.10;5.35;;;21.10;99.90;;;;;;5079822;28;20043;-57
2023/08/14 09:27:42;;;;;;;12.13;5.03;;;21.10;99.90;;;;;;5063120;28;20037;-59
2023/08/14 09:30:11;;;;;;;8.23;4.40;;;21.10;99.90;;;;;;5063157;28;20061;-58
2023/08/14 09:32:38;;;;;;;13.95;5.55;;;21.30;99.90;;;;;;5065013;28;20048;-57
2023/08/14 09:35:04;;;;;;;12.82;5.50;;;21.40;99.90;;;;;;5070798;28;20116;-57
2023/08/14 09:37:30;;;;;;;12.10;4.13;;;21.50;99.90;;;;;;5069475;28;20087;-58
2023/08/14 09:40:16;;;;;;;8.90;4.18;;;21.70;99.90;;;;;;5068376;28;20028;-57
2023/08/14 09:42:47;;;;;;;9.93;4.07;;;21.70;99.90;;;;;;5069595;28;20078;-58
2023/08/14 09:45:14;;;;;;;8.40;3.60;;;21.80;99.90;;;;;;5068454;28;20045;-57
2023/08/14 09:47:44;;;;;;;8.55;3.85;;;21.80;99.90;;;;;;5064693;28;20510;-57
2023/08/14 09:50:13;;;;;;;10.07;3.65;;;21.80;99.90;;;;;;5063466;28;20040;-57
2023/08/14 09:52:39;;;;;;;9.00;3.53;;;21.80;99.90;;;;;;5067286;28;20044;-58
2023/08/14 09:55:05;;;;;;;5.55;2.65;;;21.80;99.90;;;;;;5073692;28;20094;-58
2023/08/14 09:57:31;;;;;;;6.00;2.88;;;21.80;99.90;;;;;;5060329;28;20525;-58
2023/08/14 09:59:57;;;;;;;7.22;2.95;;;21.90;99.90;;;;;;5067304;28;20124;-57
2023/08/14 10:02:24;;;;;;;7.88;2.70;;;21.80;99.90;;;;;;5076561;28;20041;-57
2023/08/14 10:04:51;;;;;;;6.35;1.92;;;21.80;99.90;;;;;;5072186;28;20744;-57
2023/08/14 10:07:17;;;;;;;7.03;1.70;;;21.90;99.90;;;;;;5067612;28;20052;-58
2023/08/14 10:09:48;;;;;;;6.03;1.83;;;21.90;99.90;;;;;;5065702;28;20072;-57
2023/08/14 10:12:18;;;;;;;6.07;1.90;;;21.90;99.90;;;;;;5060728;28;20047;-57
2023/08/14 10:14:55;;;;;;;7.18;2.30;;;21.90;99.90;;;;;;5064874;28;20052;-57
2023/08/14 10:17:34;;;;;;;6.32;2.00;;;22.00;99.90;;;;;;5071772;28;20049;-58
2023/08/14 10:20:03;;;;;;;7.03;2.20;;;22.00;99.90;;;;;;5059305;28;20049;-59
2023/08/14 10:22:29;;;;;;;5.00;1.73;;;22.10;99.90;;;;;;5071978;28;20044;-58
2023/08/14 10:24:55;;;;;;;4.53;1.75;;;22.10;99.90;;;;;;5071438;28;20036;-57
2023/08/14 10:27:21;;;;;;;7.07;2.10;;;22.10;99.90;;;;;;5067735;28;20051;-58
2023/08/14 10:29:48;;;;;;;7.47;2.17;;;22.10;99.90;;;;;;5071864;28;20049;-58
2023/08/14 10:32:14;;;;;;;4.65;1.65;;;22.20;99.90;;;;;;5074503;28;20412;-58
2023/08/14 10:34:42;;;;;;;10.35;2.67;;;22.30;99.90;;;;;;5073940;28;20167;-58
2023/08/14 10:37:22;;;;;;;7.50;2.05;;;22.40;99.90;;;;;;5071577;28;20056;-58
2023/08/14 10:39:48;;;;;;;5.60;1.88;;;22.40;99.90;;;;;;5065551;28;20056;-58
2023/08/14 10:42:15;;;;;;;5.53;2.10;;;22.40;99.90;;;;;;5071724;28;20090;-58
2023/08/14 10:44:43;;;;;;;5.72;2.15;;;22.40;99.90;;;;;;5069895;28;20040;-57
2023/08/14 10:47:12;;;;;;;7.63;2.15;;;22.40;99.90;;;;;;5072205;28;20033;-57
2023/08/14 10:49:45;;;;;;;7.63;2.20;;;22.40;99.90;;;;;;5067414;28;20046;-57
2023/08/14 10:52:20;;;;;;;6.22;2.20;;;22.40;99.90;;;;;;5068501;28;20072;-57
2023/08/14 10:54:52;;;;;;;10.33;2.10;;;22.50;99.90;;;;;;5081925;28;20055;-57
2023/08/14 10:57:27;;;;;;;5.78;2.30;;;22.60;99.90;;;;;;5074623;28;20036;-58
2023/08/14 10:59:57;;;;;;;8.82;2.83;;;22.60;99.90;;;;;;5072426;28;20041;-57
2023/08/14 11:02:26;;;;;;;7.88;2.60;;;22.60;99.90;;;;;;5071899;28;20136;-57
2023/08/14 11:04:59;;;;;;;8.48;2.15;;;22.70;99.90;;;;;;5068897;28;20037;-57
2023/08/14 11:07:29;;;;;;;8.00;2.80;;;22.80;99.90;;;;;;5068777;28;20045;-57
2023/08/14 11:09:58;;;;;;;6.43;2.45;;;22.90;99.90;;;;;;5074297;28;20045;-57
2023/08/14 11:12:25;;;;;;;7.28;2.60;;;22.90;99.90;;;;;;5070208;28;20091;-57
2023/08/14 11:14:52;;;;;;;6.72;2.35;;;22.90;99.90;;;;;;5066503;28;20052;-57
2023/08/14 11:17:19;;;;;;;8.73;2.78;;;22.90;99.90;;;;;;5079840;28;20476;-57
2023/08/14 11:19:45;;;;;;;7.57;2.50;;;22.90;99.90;;;;;;5069006;28;20055;-57
2023/08/14 11:22:10;;;;;;;7.25;2.10;;;23.00;99.90;;;;;;5077818;28;20068;-57
2023/08/14 11:24:36;;;;;;;6.38;2.70;;;23.10;99.90;;;;;;5060730;28;20036;-58
2023/08/14 11:27:03;;;;;;;6.63;2.60;;;23.10;99.90;;;;;;5073962;28;20072;-57
2023/08/14 11:29:29;;;;;;;6.53;2.67;;;23.10;99.90;;;;;;5061926;28;20091;-57
2023/08/14 11:31:55;;;;;;;5.90;2.40;;;23.20;99.90;;;;;;5068107;28;20095;-58
2023/08/14 11:34:22;;;;;;;9.70;3.20;;;23.20;99.90;;;;;;5061949;28;20080;-57
2023/08/14 11:36:56;;;;;;;10.23;2.75;;;23.30;99.90;;;;;;5072324;28;20117;-57
2023/08/14 11:39:22;;;;;;;7.07;2.72;;;23.30;99.90;;;;;;5067576;28;20078;-57
2023/08/14 11:41:47;;;;;;;12.48;4.85;;;23.30;99.90;;;;;;5062821;28;20041;-58
2023/08/14 11:44:13;;;;;;;8.85;3.40;;;23.40;99.90;;;;;;5072323;28;20124;-57
2023/08/14 11:46:39;;;;;;;8.02;2.80;;;23.50;99.90;;;;;;5068408;28;20103;-57
2023/08/14 11:49:05;;;;;;;6.38;2.58;;;23.60;99.90;;;;;;5064311;28;20045;-58
2023/08/14 11:51:31;;;;;;;8.65;2.92;;;23.60;99.90;;;;;;5062522;28;20072;-58
2023/08/14 11:53:59;;;;;;;8.18;2.80;;;23.60;99.90;;;;;;5060982;28;20048;-58
2023/08/14 11:56:26;;;;;;;7.90;2.65;;;23.70;99.90;;;;;;5063220;28;20049;-58
2023/08/14 11:58:52;;;;;;;8.05;2.90;;;23.70;99.90;;;;;;5062326;28;20045;-57
2023/08/14 12:01:19;;;;;;;7.30;2.90;;;23.80;99.90;;;;;;5082236;28;20093;-57
2023/08/14 12:03:46;;;;;;;9.20;3.30;;;23.90;99.90;;;;;;5061633;28;20084;-56
2023/08/14 12:06:11;;;;;;;6.93;3.40;;;23.90;99.90;;;;;;5061081;28;20132;-56
2023/08/14 12:08:38;;;;;;;6.03;2.95;;;23.90;99.90;;;;;;5074185;28;20096;-57
2023/08/14 12:11:05;;;;;;;8.93;2.95;;;23.90;99.90;;;;;;5064121;28;20104;-57
2023/08/14 12:13:34;;;;;;;7.57;3.08;;;23.90;99.90;;;;;;5067284;28;20642;-57
2023/08/14 12:16:07;;;;;;;9.63;3.20;;;24.00;99.90;;;;;;5065596;28;20053;-57
2023/08/14 12:18:33;;;;;;;6.65;2.85;;;24.10;99.90;;;;;;5068494;28;20124;-57
2023/08/14 12:20:58;;;;;;;5.90;2.67;;;24.00;99.90;;;;;;5063235;28;20049;-57
2023/08/14 12:23:24;;;;;;;6.65;2.85;;;24.00;99.90;;;;;;5066483;28;20081;-57
2023/08/14 12:25:51;;;;;;;7.70;3.50;;;24.10;99.90;;;;;;5075599;28;20048;-58
2023/08/14 12:28:17;;;;;;;7.25;3.15;;;24.10;99.90;;;;;;5063661;28;20041;-56
2023/08/14 12:30:44;;;;;;;6.43;3.00;;;24.20;99.90;;;;;;5071209;28;20052;-57
2023/08/14 12:33:13;;;;;;;5.45;2.95;;;24.30;99.90;;;;;;5064085;28;20041;-58
2023/08/14 12:35:39;;;;;;;8.80;2.90;;;24.40;99.90;;;;;;5069396;28;20108;-57